sensor_id;sensor_type;location;lat;lon;timestamp;temperature;humidity
31455;DHT22;18084;53.028;8.834;2023-04-25T00:01:06;7.10;99.90
31455;DHT22;18084;53.028;8.834;2023-04-25T00:03:32;7.20;99.90
31455;DHT22;18084;53.028;8.834;2023-04-25T00:05:58;7.00;99.90
31455;DHT22;18084;53.028;8.834;2023-04-25T00:08:28;7.10;99.90
31455;DHT22;18084;53.028;8.834;2023-04-25T00:10:54;7.10;99.90
31455;DHT22;18084;53.028;8.834;2023-04-25T00:13:19;7.20;99.90
31455;DHT22;18084;53.028;8.834;2023-04-25T00:15:45;7.00;99.90
31455;DHT22;18084;53.028;8.834;2023-04-25T00:18:11;7.10;99.90
31455;DHT22;18084;53.028;8.834;2023-04-25T00:20:37;7.10;99.90
31455;DHT22;18084;53.028;8.834;2023-04-25T00:23:02;7.00;99.90
31455;DHT22;18084;53.028;8.834;2023-04-25T00:25:28;7.00;99.90
31455;DHT22;18084;53.028;8.834;2023-04-25T00:27:54;7.10;99.90
31455;DHT22;18084;53.028;8.834;2023-04-25T00:30:19;8.50;99.90
31455;DHT22;18084;53.028;8.834;2023-04-25T00:32:45;7.10;99.90
31455;DHT22;18084;53.028;8.834;2023-04-25T00:35:11;7.00;99.90
31455;DHT22;18084;53.028;8.834;2023-04-25T00:37:36;7.00;99.90
31455;DHT22;18084;53.028;8.834;2023-04-25T00:40:04;7.10;99.90
31455;DHT22;18084;53.028;8.834;2023-04-25T00:42:31;7.00;99.90
31455;DHT22;18084;53.028;8.834;2023-04-25T00:44:58;8.90;99.90
31455;DHT22;18084;53.028;8.834;2023-04-25T00:47:24;6.80;99.90
31455;DHT22;18084;53.028;8.834;2023-04-25T00:49:50;7.00;99.90
31455;DHT22;18084;53.028;8.834;2023-04-25T00:52:15;6.90;99.90
31455;DHT22;18084;53.028;8.834;2023-04-25T00:54:41;8.90;99.90
31455;DHT22;18084;53.028;8.834;2023-04-25T00:57:06;7.00;99.90
31455;DHT22;18084;53.028;8.834;2023-04-25T00:59:33;7.00;99.90
31455;DHT22;18084;53.028;8.834;2023-04-25T01:01:59;7.00;99.90
31455;DHT22;18084;53.028;8.834;2023-04-25T01:04:26;6.80;99.90
31455;DHT22;18084;53.028;8.834;2023-04-25T01:06:52;6.80;99.90
31455;DHT22;18084;53.028;8.834;2023-04-25T01:09:17;7.80;99.90
31455;DHT22;18084;53.028;8.834;2023-04-25T01:11:45;7.00;99.90
31455;DHT22;18084;53.028;8.834;2023-04-25T01:14:10;6.90;99.90
31455;DHT22;18084;53.028;8.834;2023-04-25T01:16:36;6.80;99.90
31455;DHT22;18084;53.028;8.834;2023-04-25T01:19:04;6.70;99.90
31455;DHT22;18084;53.028;8.834;2023-04-25T01:21:30;6.70;99.90
31455;DHT22;18084;53.028;8.834;2023-04-25T01:23:56;6.60;99.90
31455;DHT22;18084;53.028;8.834;2023-04-25T01:26:21;6.60;99.90
31455;DHT22;18084;53.028;8.834;2023-04-25T01:28:47;6.50;99.90
31455;DHT22;18084;53.028;8.834;2023-04-25T01:31:13;6.60;99.90
31455;DHT22;18084;53.028;8.834;2023-04-25T01:33:39;6.60;99.90
31455;DHT22;18084;53.028;8.834;2023-04-25T01:36:05;6.90;99.90
31455;DHT22;18084;53.028;8.834;2023-04-25T01:38:30;6.60;99.90
31455;DHT22;18084;53.028;8.834;2023-04-25T01:40:56;6.50;99.90
31455;DHT22;18084;53.028;8.834;2023-04-25T01:43:22;5.30;99.90
31455;DHT22;18084;53.028;8.834;2023-04-25T01:45:47;6.40;99.90
31455;DHT22;18084;53.028;8.834;2023-04-25T01:48:13;6.60;99.90
31455;DHT22;18084;53.028;8.834;2023-04-25T01:50:39;6.50;99.90
31455;DHT22;18084;53.028;8.834;2023-04-25T01:53:05;6.60;99.90
31455;DHT22;18084;53.028;8.834;2023-04-25T01:55:31;6.50;99.90
31455;DHT22;18084;53.028;8.834;2023-04-25T01:57:56;6.50;99.90
31455;DHT22;18084;53.028;8.834;2023-04-25T02:00:22;6.50;99.90
31455;DHT22;18084;53.028;8.834;2023-04-25T02:02:48;6.50;99.90
31455;DHT22;18084;53.028;8.834;2023-04-25T02:05:16;6.50;99.90
31455;DHT22;18084;53.028;8.834;2023-04-25T02:07:41;6.50;99.90
31455;DHT22;18084;53.028;8.834;2023-04-25T02:10:07;6.50;99.90
31455;DHT22;18084;53.028;8.834;2023-04-25T02:12:32;6.50;99.90
31455;DHT22;18084;53.028;8.834;2023-04-25T02:14:58;6.50;99.90
31455;DHT22;18084;53.028;8.834;2023-04-25T02:17:23;6.50;99.90
31455;DHT22;18084;53.028;8.834;2023-04-25T02:19:49;6.50;99.90
31455;DHT22;18084;53.028;8.834;2023-04-25T02:22:15;6.40;99.90
31455;DHT22;18084;53.028;8.834;2023-04-25T02:24:40;6.50;99.90
31455;DHT22;18084;53.028;8.834;2023-04-25T02:27:06;6.40;99.90
31455;DHT22;18084;53.028;8.834;2023-04-25T02:29:32;6.40;99.90
31455;DHT22;18084;53.028;8.834;2023-04-25T02:31:58;6.30;99.90
31455;DHT22;18084;53.028;8.834;2023-04-25T02:34:23;6.30;99.90
31455;DHT22;18084;53.028;8.834;2023-04-25T02:36:49;6.30;99.90
31455;DHT22;18084;53.028;8.834;2023-04-25T02:39:16;6.20;99.90
31455;DHT22;18084;53.028;8.834;2023-04-25T02:41:41;6.20;99.90
31455;DHT22;18084;53.028;8.834;2023-04-25T02:44:07;6.10;99.90
31455;DHT22;18084;53.028;8.834;2023-04-25T02:46:32;6.10;99.90
31455;DHT22;18084;53.028;8.834;2023-04-25T02:48:58;6.10;99.90
31455;DHT22;18084;53.028;8.834;2023-04-25T02:51:23;6.10;99.90
31455;DHT22;18084;53.028;8.834;2023-04-25T02:53:48;6.20;99.90
31455;DHT22;18084;53.028;8.834;2023-04-25T02:56:14;6.00;99.90
31455;DHT22;18084;53.028;8.834;2023-04-25T02:58:39;6.00;99.90
31455;DHT22;18084;53.028;8.834;2023-04-25T03:01:05;6.00;99.90
31455;DHT22;18084;53.028;8.834;2023-04-25T03:03:30;5.90;99.90
31455;DHT22;18084;53.028;8.834;2023-04-25T03:05:56;5.90;99.90
31455;DHT22;18084;53.028;8.834;2023-04-25T03:08:21;5.90;99.90
31455;DHT22;18084;53.028;8.834;2023-04-25T03:10:47;5.90;99.90
31455;DHT22;18084;53.028;8.834;2023-04-25T03:13:15;5.90;99.90
31455;DHT22;18084;53.028;8.834;2023-04-25T03:15:40;5.80;99.90
31455;DHT22;18084;53.028;8.834;2023-04-25T03:18:06;5.90;99.90
31455;DHT22;18084;53.028;8.834;2023-04-25T03:20:31;5.70;99.90
31455;DHT22;18084;53.028;8.834;2023-04-25T03:22:56;5.90;99.90
31455;DHT22;18084;53.028;8.834;2023-04-25T03:25:22;5.90;99.90
31455;DHT22;18084;53.028;8.834;2023-04-25T03:27:47;5.90;99.90
31455;DHT22;18084;53.028;8.834;2023-04-25T03:30:13;6.00;99.90
31455;DHT22;18084;53.028;8.834;2023-04-25T03:32:38;6.00;99.90
31455;DHT22;18084;53.028;8.834;2023-04-25T03:35:04;5.80;99.90
31455;DHT22;18084;53.028;8.834;2023-04-25T03:37:30;5.90;99.90
31455;DHT22;18084;53.028;8.834;2023-04-25T03:39:56;5.90;99.90
31455;DHT22;18084;53.028;8.834;2023-04-25T03:42:21;6.00;99.90
31455;DHT22;18084;53.028;8.834;2023-04-25T03:44:48;5.90;99.90
31455;DHT22;18084;53.028;8.834;2023-04-25T03:47:14;5.80;99.90
31455;DHT22;18084;53.028;8.834;2023-04-25T03:49:39;5.80;99.90
31455;DHT22;18084;53.028;8.834;2023-04-25T03:52:05;5.90;99.90
31455;DHT22;18084;53.028;8.834;2023-04-25T03:54:30;5.80;99.90
31455;DHT22;18084;53.028;8.834;2023-04-25T03:56:55;5.90;99.90
31455;DHT22;18084;53.028;8.834;2023-04-25T03:59:21;5.80;99.90
31455;DHT22;18084;53.028;8.834;2023-04-25T04:01:46;5.70;99.90
31455;DHT22;18084;53.028;8.834;2023-04-25T04:04:12;5.80;99.90
31455;DHT22;18084;53.028;8.834;2023-04-25T04:06:37;5.80;99.90
31455;DHT22;18084;53.028;8.834;2023-04-25T04:09:03;5.70;99.90
31455;DHT22;18084;53.028;8.834;2023-04-25T04:11:28;5.70;99.90
31455;DHT22;18084;53.028;8.834;2023-04-25T04:13:54;5.60;99.90
31455;DHT22;18084;53.028;8.834;2023-04-25T04:16:19;5.50;99.90
31455;DHT22;18084;53.028;8.834;2023-04-25T04:18:46;5.40;99.90
31455;DHT22;18084;53.028;8.834;2023-04-25T04:21:11;5.50;99.90
31455;DHT22;18084;53.028;8.834;2023-04-25T04:23:37;5.40;99.90
31455;DHT22;18084;53.028;8.834;2023-04-25T04:26:02;5.30;99.90
31455;DHT22;18084;53.028;8.834;2023-04-25T04:28:28;5.40;99.90
31455;DHT22;18084;53.028;8.834;2023-04-25T04:30:53;5.30;99.90
31455;DHT22;18084;53.028;8.834;2023-04-25T04:33:19;5.30;99.90
31455;DHT22;18084;53.028;8.834;2023-04-25T04:35:45;5.30;99.90
31455;DHT22;18084;53.028;8.834;2023-04-25T04:38:12;5.20;99.90
31455;DHT22;18084;53.028;8.834;2023-04-25T04:40:37;5.40;99.90
31455;DHT22;18084;53.028;8.834;2023-04-25T04:43:03;5.30;99.90
31455;DHT22;18084;53.028;8.834;2023-04-25T04:45:28;5.30;99.90
31455;DHT22;18084;53.028;8.834;2023-04-25T04:47:54;5.30;99.90
31455;DHT22;18084;53.028;8.834;2023-04-25T04:50:20;5.30;99.90
31455;DHT22;18084;53.028;8.834;2023-04-25T04:52:46;5.40;99.90
31455;DHT22;18084;53.028;8.834;2023-04-25T04:55:11;5.40;99.90
31455;DHT22;18084;53.028;8.834;2023-04-25T04:57:36;5.40;99.90
31455;DHT22;18084;53.028;8.834;2023-04-25T05:00:05;5.50;99.90
31455;DHT22;18084;53.028;8.834;2023-04-25T05:02:35;5.60;99.90
31455;DHT22;18084;53.028;8.834;2023-04-25T05:05:01;5.60;99.90
31455;DHT22;18084;53.028;8.834;2023-04-25T05:07:26;5.50;99.90
31455;DHT22;18084;53.028;8.834;2023-04-25T05:09:52;5.50;99.90
31455;DHT22;18084;53.028;8.834;2023-04-25T05:12:17;5.60;99.90
31455;DHT22;18084;53.028;8.834;2023-04-25T05:14:42;5.60;99.90
31455;DHT22;18084;53.028;8.834;2023-04-25T05:17:08;5.60;99.90
31455;DHT22;18084;53.028;8.834;2023-04-25T05:19:34;5.90;99.90
31455;DHT22;18084;53.028;8.834;2023-04-25T05:21:59;5.80;99.90
31455;DHT22;18084;53.028;8.834;2023-04-25T05:24:25;5.70;99.90
31455;DHT22;18084;53.028;8.834;2023-04-25T05:26:50;5.80;99.90
31455;DHT22;18084;53.028;8.834;2023-04-25T05:29:16;5.80;99.90
31455;DHT22;18084;53.028;8.834;2023-04-25T05:31:41;5.80;99.90
31455;DHT22;18084;53.028;8.834;2023-04-25T05:34:06;5.80;99.90
31455;DHT22;18084;53.028;8.834;2023-04-25T05:36:32;5.90;99.90
31455;DHT22;18084;53.028;8.834;2023-04-25T05:38:57;6.00;99.90
31455;DHT22;18084;53.028;8.834;2023-04-25T05:41:23;6.00;99.90
31455;DHT22;18084;53.028;8.834;2023-04-25T05:43:48;6.10;99.90
31455;DHT22;18084;53.028;8.834;2023-04-25T05:46:14;6.30;99.90
31455;DHT22;18084;53.028;8.834;2023-04-25T05:48:42;6.50;99.90
31455;DHT22;18084;53.028;8.834;2023-04-25T05:51:07;6.40;99.70
31455;DHT22;18084;53.028;8.834;2023-04-25T05:53:33;6.80;99.90
31455;DHT22;18084;53.028;8.834;2023-04-25T05:55:58;6.60;99.90
31455;DHT22;18084;53.028;8.834;2023-04-25T05:58:24;6.90;97.20
31455;DHT22;18084;53.028;8.834;2023-04-25T06:00:49;7.70;93.60
31455;DHT22;18084;53.028;8.834;2023-04-25T06:03:15;7.90;93.00
31455;DHT22;18084;53.028;8.834;2023-04-25T06:05:41;7.50;91.20
31455;DHT22;18084;53.028;8.834;2023-04-25T06:08:06;7.70;77.00
31455;DHT22;18084;53.028;8.834;2023-04-25T06:10:32;8.00;81.10
31455;DHT22;18084;53.028;8.834;2023-04-25T06:12:57;8.20;65.80
31455;DHT22;18084;53.028;8.834;2023-04-25T06:15:23;8.20;1.00
31455;DHT22;18084;53.028;8.834;2023-04-25T06:17:48;8.40;1.00
31455;DHT22;18084;53.028;8.834;2023-04-25T06:20:14;8.60;1.00
31455;DHT22;18084;53.028;8.834;2023-04-25T06:22:39;8.60;1.00
31455;DHT22;18084;53.028;8.834;2023-04-25T06:25:05;8.70;1.00
31455;DHT22;18084;53.028;8.834;2023-04-25T06:27:32;8.80;1.00
31455;DHT22;18084;53.028;8.834;2023-04-25T06:29:58;9.00;1.00
31455;DHT22;18084;53.028;8.834;2023-04-25T06:32:23;9.20;99.90
31455;DHT22;18084;53.028;8.834;2023-04-25T06:34:49;9.50;99.90
31455;DHT22;18084;53.028;8.834;2023-04-25T06:37:14;9.70;99.90
31455;DHT22;18084;53.028;8.834;2023-04-25T06:39:40;9.60;57.60
31455;DHT22;18084;53.028;8.834;2023-04-25T06:42:05;9.80;83.90
31455;DHT22;18084;53.028;8.834;2023-04-25T06:44:31;9.90;20.50
31455;DHT22;18084;53.028;8.834;2023-04-25T06:46:56;10.00;1.00
31455;DHT22;18084;53.028;8.834;2023-04-25T06:49:22;10.10;99.90
31455;DHT22;18084;53.028;8.834;2023-04-25T06:51:47;10.40;99.90
31455;DHT22;18084;53.028;8.834;2023-04-25T06:54:13;10.70;99.90
31455;DHT22;18084;53.028;8.834;2023-04-25T06:56:38;10.80;1.00
31455;DHT22;18084;53.028;8.834;2023-04-25T06:59:04;10.40;99.90
31455;DHT22;18084;53.028;8.834;2023-04-25T07:01:29;9.80;1.00
31455;DHT22;18084;53.028;8.834;2023-04-25T07:03:55;9.40;99.90
31455;DHT22;18084;53.028;8.834;2023-04-25T07:06:20;9.10;99.90
31455;DHT22;18084;53.028;8.834;2023-04-25T07:08:46;9.00;99.90
31455;DHT22;18084;53.028;8.834;2023-04-25T07:11:11;8.70;99.90
31455;DHT22;18084;53.028;8.834;2023-04-25T07:13:37;8.50;99.90
31455;DHT22;18084;53.028;8.834;2023-04-25T07:16:02;10.30;99.90
31455;DHT22;18084;53.028;8.834;2023-04-25T07:18:28;8.60;99.90
31455;DHT22;18084;53.028;8.834;2023-04-25T07:20:53;8.30;99.90
31455;DHT22;18084;53.028;8.834;2023-04-25T07:23:19;8.40;99.90
31455;DHT22;18084;53.028;8.834;2023-04-25T07:25:44;8.20;99.90
31455;DHT22;18084;53.028;8.834;2023-04-25T07:28:10;8.20;99.90
31455;DHT22;18084;53.028;8.834;2023-04-25T07:30:35;8.10;99.90
31455;DHT22;18084;53.028;8.834;2023-04-25T07:33:01;8.20;99.90
31455;DHT22;18084;53.028;8.834;2023-04-25T07:35:27;8.90;99.90
31455;DHT22;18084;53.028;8.834;2023-04-25T07:37:52;9.30;99.90
31455;DHT22;18084;53.028;8.834;2023-04-25T07:40:18;10.10;99.90
31455;DHT22;18084;53.028;8.834;2023-04-25T07:42:43;11.20;92.50
31455;DHT22;18084;53.028;8.834;2023-04-25T07:45:09;11.70;99.90
31455;DHT22;18084;53.028;8.834;2023-04-25T07:47:35;12.50;99.90
31455;DHT22;18084;53.028;8.834;2023-04-25T07:50:02;12.70;90.50
31455;DHT22;18084;53.028;8.834;2023-04-25T07:52:28;12.70;1.00
31455;DHT22;18084;53.028;8.834;2023-04-25T07:54:53;13.00;58.30
31455;DHT22;18084;53.028;8.834;2023-04-25T07:57:19;13.60;99.90
31455;DHT22;18084;53.028;8.834;2023-04-25T07:59:45;13.80;99.90
31455;DHT22;18084;53.028;8.834;2023-04-25T08:02:10;12.60;99.90
31455;DHT22;18084;53.028;8.834;2023-04-25T08:04:36;12.90;1.00
31455;DHT22;18084;53.028;8.834;2023-04-25T08:07:01;13.40;99.90
31455;DHT22;18084;53.028;8.834;2023-04-25T08:09:27;13.90;99.90
31455;DHT22;18084;53.028;8.834;2023-04-25T08:11:53;13.30;99.90
31455;DHT22;18084;53.028;8.834;2023-04-25T08:14:18;12.50;1.00
31455;DHT22;18084;53.028;8.834;2023-04-25T08:16:45;13.90;99.90
31455;DHT22;18084;53.028;8.834;2023-04-25T08:19:10;11.70;25.50
31455;DHT22;18084;53.028;8.834;2023-04-25T08:21:38;10.80;99.90
31455;DHT22;18084;53.028;8.834;2023-04-25T08:24:04;10.40;1.00
31455;DHT22;18084;53.028;8.834;2023-04-25T08:26:29;10.10;99.90
31455;DHT22;18084;53.028;8.834;2023-04-25T08:28:55;9.90;99.90
31455;DHT22;18084;53.028;8.834;2023-04-25T08:31:20;9.90;99.90
31455;DHT22;18084;53.028;8.834;2023-04-25T08:33:46;9.50;1.00
31455;DHT22;18084;53.028;8.834;2023-04-25T08:36:11;8.70;99.90
31455;DHT22;18084;53.028;8.834;2023-04-25T08:38:37;8.20;1.00
31455;DHT22;18084;53.028;8.834;2023-04-25T08:41:02;7.60;1.00
31455;DHT22;18084;53.028;8.834;2023-04-25T08:43:28;7.40;1.00
31455;DHT22;18084;53.028;8.834;2023-04-25T08:45:54;7.20;1.00
31455;DHT22;18084;53.028;8.834;2023-04-25T08:48:22;7.20;1.00
31455;DHT22;18084;53.028;8.834;2023-04-25T08:53:14;7.30;1.00
31455;DHT22;18084;53.028;8.834;2023-04-25T08:55:43;7.60;1.00
31455;DHT22;18084;53.028;8.834;2023-04-25T08:58:10;7.80;1.00
31455;DHT22;18084;53.028;8.834;2023-04-25T09:00:36;8.10;1.00
31455;DHT22;18084;53.028;8.834;2023-04-25T09:03:01;8.10;99.90
31455;DHT22;18084;53.028;8.834;2023-04-25T09:05:28;8.40;1.00
31455;DHT22;18084;53.028;8.834;2023-04-25T09:07:55;8.50;99.90
31455;DHT22;18084;53.028;8.834;2023-04-25T09:10:21;8.90;99.90
31455;DHT22;18084;53.028;8.834;2023-04-25T09:13:01;9.30;99.90
31455;DHT22;18084;53.028;8.834;2023-04-25T09:15:27;10.30;1.00
31455;DHT22;18084;53.028;8.834;2023-04-25T09:17:55;11.50;44.80
31455;DHT22;18084;53.028;8.834;2023-04-25T09:20:21;11.90;99.90
31455;DHT22;18084;53.028;8.834;2023-04-25T09:22:46;11.90;99.90
31455;DHT22;18084;53.028;8.834;2023-04-25T09:25:12;12.20;63.20
31455;DHT22;18084;53.028;8.834;2023-04-25T09:27:57;12.10;56.90
31455;DHT22;18084;53.028;8.834;2023-04-25T09:30:29;11.60;1.00
31455;DHT22;18084;53.028;8.834;2023-04-25T09:32:56;10.80;99.90
31455;DHT22;18084;53.028;8.834;2023-04-25T09:35:25;10.30;1.00
31455;DHT22;18084;53.028;8.834;2023-04-25T09:37:53;10.30;1.50
31455;DHT22;18084;53.028;8.834;2023-04-25T09:40:19;10.20;99.90
31455;DHT22;18084;53.028;8.834;2023-04-25T09:42:44;10.40;99.90
31455;DHT22;18084;53.028;8.834;2023-04-25T09:45:12;10.80;99.90
31455;DHT22;18084;53.028;8.834;2023-04-25T09:47:38;9.90;9.30
31455;DHT22;18084;53.028;8.834;2023-04-25T09:50:04;10.00;63.90
31455;DHT22;18084;53.028;8.834;2023-04-25T09:52:38;10.10;1.00
31455;DHT22;18084;53.028;8.834;2023-04-25T09:55:04;10.30;99.90
31455;DHT22;18084;53.028;8.834;2023-04-25T09:57:29;10.70;99.90
31455;DHT22;18084;53.028;8.834;2023-04-25T09:59:55;11.60;99.90
31455;DHT22;18084;53.028;8.834;2023-04-25T10:02:24;13.50;99.90
31455;DHT22;18084;53.028;8.834;2023-04-25T10:04:51;12.70;19.80
31455;DHT22;18084;53.028;8.834;2023-04-25T10:07:20;12.90;99.90
31455;DHT22;18084;53.028;8.834;2023-04-25T10:09:49;12.40;99.90
31455;DHT22;18084;53.028;8.834;2023-04-25T10:12:16;12.70;99.90
31455;DHT22;18084;53.028;8.834;2023-04-25T10:14:42;12.80;99.90
31455;DHT22;18084;53.028;8.834;2023-04-25T10:17:08;12.70;74.00
31455;DHT22;18084;53.028;8.834;2023-04-25T10:19:35;12.80;1.00
31455;DHT22;18084;53.028;8.834;2023-04-25T10:24:25;12.70;99.90
31455;DHT22;18084;53.028;8.834;2023-04-25T10:26:52;12.80;99.90
31455;DHT22;18084;53.028;8.834;2023-04-25T10:29:24;12.70;1.00
31455;DHT22;18084;53.028;8.834;2023-04-25T10:31:49;11.90;99.90
31455;DHT22;18084;53.028;8.834;2023-04-25T10:34:16;11.40;1.00
31455;DHT22;18084;53.028;8.834;2023-04-25T10:36:51;10.90;99.90
31455;DHT22;18084;53.028;8.834;2023-04-25T10:39:24;10.30;99.90
31455;DHT22;18084;53.028;8.834;2023-04-25T10:41:56;9.90;1.00
31455;DHT22;18084;53.028;8.834;2023-04-25T10:44:22;9.70;93.40
31455;DHT22;18084;53.028;8.834;2023-04-25T10:46:48;10.40;1.00
31455;DHT22;18084;53.028;8.834;2023-04-25T10:49:29;9.90;51.60
31455;DHT22;18084;53.028;8.834;2023-04-25T10:52:10;9.70;99.90
31455;DHT22;18084;53.028;8.834;2023-04-25T10:54:40;10.20;99.90
31455;DHT22;18084;53.028;8.834;2023-04-25T10:57:05;10.70;57.70
31455;DHT22;18084;53.028;8.834;2023-04-25T10:59:31;10.90;1.00
31455;DHT22;18084;53.028;8.834;2023-04-25T11:01:56;11.10;99.90
31455;DHT22;18084;53.028;8.834;2023-04-25T11:04:32;11.10;99.90
31455;DHT22;18084;53.028;8.834;2023-04-25T11:09:45;11.60;99.90
31455;DHT22;18084;53.028;8.834;2023-04-25T11:12:11;11.70;1.00
31455;DHT22;18084;53.028;8.834;2023-04-25T11:14:40;11.70;99.90
31455;DHT22;18084;53.028;8.834;2023-04-25T11:17:05;11.60;57.90
31455;DHT22;18084;53.028;8.834;2023-04-25T11:19:31;11.60;99.90
31455;DHT22;18084;53.028;8.834;2023-04-25T11:22:03;11.90;99.90
31455;DHT22;18084;53.028;8.834;2023-04-25T11:24:29;12.30;99.90
31455;DHT22;18084;53.028;8.834;2023-04-25T11:26:55;12.30;99.90
31455;DHT22;18084;53.028;8.834;2023-04-25T11:29:26;12.60;1.00
31455;DHT22;18084;53.028;8.834;2023-04-25T11:31:52;12.80;27.90
31455;DHT22;18084;53.028;8.834;2023-04-25T11:34:17;12.50;99.90
31455;DHT22;18084;53.028;8.834;2023-04-25T11:36:44;12.60;13.70
31455;DHT22;18084;53.028;8.834;2023-04-25T11:39:09;11.80;99.90
31455;DHT22;18084;53.028;8.834;2023-04-25T11:41:36;11.40;99.90
31455;DHT22;18084;53.028;8.834;2023-04-25T11:44:02;10.20;1.00
31455;DHT22;18084;53.028;8.834;2023-04-25T11:46:28;9.40;1.00
31455;DHT22;18084;53.028;8.834;2023-04-25T11:48:53;8.70;25.70
31455;DHT22;18084;53.028;8.834;2023-04-25T11:51:20;8.60;56.10
31455;DHT22;18084;53.028;8.834;2023-04-25T11:53:46;8.20;77.60
31455;DHT22;18084;53.028;8.834;2023-04-25T11:56:12;8.20;92.70
31455;DHT22;18084;53.028;8.834;2023-04-25T12:01:39;8.80;84.00
31455;DHT22;18084;53.028;8.834;2023-04-25T12:04:13;8.60;1.00
31455;DHT22;18084;53.028;8.834;2023-04-25T12:06:40;9.50;31.50
31455;DHT22;18084;53.028;8.834;2023-04-25T12:09:12;10.30;45.40
31455;DHT22;18084;53.028;8.834;2023-04-25T12:11:45;10.70;1.00
31455;DHT22;18084;53.028;8.834;2023-04-25T12:14:11;11.00;1.00
31455;DHT22;18084;53.028;8.834;2023-04-25T12:16:44;10.80;99.90
31455;DHT22;18084;53.028;8.834;2023-04-25T12:19:09;11.10;99.90
31455;DHT22;18084;53.028;8.834;2023-04-25T12:21:38;11.90;99.90
31455;DHT22;18084;53.028;8.834;2023-04-25T12:29:22;10.80;99.90
31455;DHT22;18084;53.028;8.834;2023-04-25T12:31:48;10.70;99.90
31455;DHT22;18084;53.028;8.834;2023-04-25T12:34:14;10.40;99.90
31455;DHT22;18084;53.028;8.834;2023-04-25T12:36:40;10.30;55.30
31455;DHT22;18084;53.028;8.834;2023-04-25T12:39:05;10.10;99.90
31455;DHT22;18084;53.028;8.834;2023-04-25T12:41:31;10.10;99.90
31455;DHT22;18084;53.028;8.834;2023-04-25T12:43:57;10.00;1.00
31455;DHT22;18084;53.028;8.834;2023-04-25T12:46:22;10.00;99.90
31455;DHT22;18084;53.028;8.834;2023-04-25T12:48:48;10.40;1.00
31455;DHT22;18084;53.028;8.834;2023-04-25T12:51:14;10.80;1.00
31455;DHT22;18084;53.028;8.834;2023-04-25T12:53:40;11.30;1.00
31455;DHT22;18084;53.028;8.834;2023-04-25T12:56:09;11.20;1.00
31455;DHT22;18084;53.028;8.834;2023-04-25T12:58:35;11.60;99.90
31455;DHT22;18084;53.028;8.834;2023-04-25T13:01:00;12.80;99.90
31455;DHT22;18084;53.028;8.834;2023-04-25T13:03:26;11.50;99.90
31455;DHT22;18084;53.028;8.834;2023-04-25T13:05:51;11.30;3.40
31455;DHT22;18084;53.028;8.834;2023-04-25T13:08:18;11.50;86.70
31455;DHT22;18084;53.028;8.834;2023-04-25T13:10:43;11.20;99.90
31455;DHT22;18084;53.028;8.834;2023-04-25T13:13:09;10.30;99.90
31455;DHT22;18084;53.028;8.834;2023-04-25T13:15:34;10.50;99.90
31455;DHT22;18084;53.028;8.834;2023-04-25T13:18:00;10.10;99.90
31455;DHT22;18084;53.028;8.834;2023-04-25T13:20:26;9.40;99.90
31455;DHT22;18084;53.028;8.834;2023-04-25T13:22:51;9.20;99.90
31455;DHT22;18084;53.028;8.834;2023-04-25T13:25:17;9.10;99.90
31455;DHT22;18084;53.028;8.834;2023-04-25T13:27:42;9.10;7.50
31455;DHT22;18084;53.028;8.834;2023-04-25T13:30:09;9.30;1.00
31455;DHT22;18084;53.028;8.834;2023-04-25T13:32:35;9.90;99.90
31455;DHT22;18084;53.028;8.834;2023-04-25T13:35:04;10.40;99.90
31455;DHT22;18084;53.028;8.834;2023-04-25T13:37:30;10.70;99.90
31455;DHT22;18084;53.028;8.834;2023-04-25T13:39:59;11.20;99.90
31455;DHT22;18084;53.028;8.834;2023-04-25T13:42:24;11.60;99.90
31455;DHT22;18084;53.028;8.834;2023-04-25T13:44:50;11.70;1.00
31455;DHT22;18084;53.028;8.834;2023-04-25T13:47:15;12.00;8.10
31455;DHT22;18084;53.028;8.834;2023-04-25T13:49:41;12.20;99.90
31455;DHT22;18084;53.028;8.834;2023-04-25T13:52:06;11.90;99.90
31455;DHT22;18084;53.028;8.834;2023-04-25T13:54:33;11.50;92.60
31455;DHT22;18084;53.028;8.834;2023-04-25T13:56:58;11.70;99.90
31455;DHT22;18084;53.028;8.834;2023-04-25T13:59:24;11.80;99.90
31455;DHT22;18084;53.028;8.834;2023-04-25T14:01:51;12.20;99.90
31455;DHT22;18084;53.028;8.834;2023-04-25T14:04:16;12.00;99.90
31455;DHT22;18084;53.028;8.834;2023-04-25T14:06:42;12.40;1.00
31455;DHT22;18084;53.028;8.834;2023-04-25T14:09:07;13.10;99.90
31455;DHT22;18084;53.028;8.834;2023-04-25T14:11:38;12.20;1.00
31455;DHT22;18084;53.028;8.834;2023-04-25T14:14:04;12.20;1.00
31455;DHT22;18084;53.028;8.834;2023-04-25T14:16:29;12.30;1.00
31455;DHT22;18084;53.028;8.834;2023-04-25T14:18:57;12.30;99.90
31455;DHT22;18084;53.028;8.834;2023-04-25T14:21:23;12.20;99.90
31455;DHT22;18084;53.028;8.834;2023-04-25T14:23:48;12.80;99.90
31455;DHT22;18084;53.028;8.834;2023-04-25T14:26:14;11.60;99.90
31455;DHT22;18084;53.028;8.834;2023-04-25T14:28:39;11.20;99.90
31455;DHT22;18084;53.028;8.834;2023-04-25T14:31:05;11.10;1.00
31455;DHT22;18084;53.028;8.834;2023-04-25T14:33:30;10.90;95.60
31455;DHT22;18084;53.028;8.834;2023-04-25T14:35:56;10.60;1.00
31455;DHT22;18084;53.028;8.834;2023-04-25T14:38:21;10.50;1.00
31455;DHT22;18084;53.028;8.834;2023-04-25T14:40:48;10.50;68.10
31455;DHT22;18084;53.028;8.834;2023-04-25T14:43:14;10.30;1.00
31455;DHT22;18084;53.028;8.834;2023-04-25T14:45:40;9.80;99.90
31455;DHT22;18084;53.028;8.834;2023-04-25T14:48:05;9.70;93.20
31455;DHT22;18084;53.028;8.834;2023-04-25T14:50:30;9.40;99.90
31455;DHT22;18084;53.028;8.834;2023-04-25T14:52:56;9.20;1.00
31455;DHT22;18084;53.028;8.834;2023-04-25T14:55:24;8.80;1.00
31455;DHT22;18084;53.028;8.834;2023-04-25T14:57:49;9.00;1.00
31455;DHT22;18084;53.028;8.834;2023-04-25T15:00:15;8.90;1.00
31455;DHT22;18084;53.028;8.834;2023-04-25T15:02:41;9.00;1.00
31455;DHT22;18084;53.028;8.834;2023-04-25T15:05:07;9.00;1.00
31455;DHT22;18084;53.028;8.834;2023-04-25T15:07:33;9.30;99.90
31455;DHT22;18084;53.028;8.834;2023-04-25T15:10:00;9.90;99.90
31455;DHT22;18084;53.028;8.834;2023-04-25T15:12:25;9.50;99.90
31455;DHT22;18084;53.028;8.834;2023-04-25T15:14:53;9.70;99.90
31455;DHT22;18084;53.028;8.834;2023-04-25T15:17:19;9.60;63.40
31455;DHT22;18084;53.028;8.834;2023-04-25T15:19:44;9.30;99.90
31455;DHT22;18084;53.028;8.834;2023-04-25T15:22:10;9.50;99.90
31455;DHT22;18084;53.028;8.834;2023-04-25T15:24:36;9.40;99.90
31455;DHT22;18084;53.028;8.834;2023-04-25T15:27:01;9.10;99.90
31455;DHT22;18084;53.028;8.834;2023-04-25T15:29:27;8.90;1.00
31455;DHT22;18084;53.028;8.834;2023-04-25T15:31:54;8.50;1.00
31455;DHT22;18084;53.028;8.834;2023-04-25T15:34:19;8.50;1.00
31455;DHT22;18084;53.028;8.834;2023-04-25T15:36:44;8.70;1.00
31455;DHT22;18084;53.028;8.834;2023-04-25T15:39:10;8.80;14.30
31455;DHT22;18084;53.028;8.834;2023-04-25T15:41:36;9.00;1.00
31455;DHT22;18084;53.028;8.834;2023-04-25T15:44:01;8.90;99.90
31455;DHT22;18084;53.028;8.834;2023-04-25T15:46:27;9.00;99.90
31455;DHT22;18084;53.028;8.834;2023-04-25T15:48:53;8.90;99.90
31455;DHT22;18084;53.028;8.834;2023-04-25T15:51:19;8.90;99.90